Time;durP1;ratioP1;P1;durP2;ratioP2;P2;SDS_P1;SDS_P2;PMS_P1;PMS_P2;Temp;Humidity;BMP_temperature;BMP_pressure;BME280_temperature;BME280_humidity;BME280_pressure;Samples;Min_cycle;Max_cycle;Signal;HPM_P1;HPM_P2
2022/12/16 00:02:01;;;;;;;41.47;28.07;;;-1.30;99.90;;;;;;5030860;28;20448;-69
2022/12/16 00:04:26;;;;;;;48.28;31.70;;;-1.40;99.90;;;;;;5030038;28;20395;-69
2022/12/16 00:06:52;;;;;;;44.40;29.58;;;-1.30;99.90;;;;;;5030687;28;20403;-68
2022/12/16 00:09:17;;;;;;;41.72;28.98;;;-1.40;99.90;;;;;;5030022;28;20422;-69
2022/12/16 00:11:43;;;;;;;43.05;29.75;;;-1.40;99.90;;;;;;5030763;28;20398;-69
2022/12/16 00:14:09;;;;;;;42.20;28.80;;;-1.40;99.90;;;;;;5030104;28;20975;-68
2022/12/16 00:16:34;;;;;;;42.90;29.20;;;-1.20;99.90;;;;;;5031277;28;20391;-68
2022/12/16 00:19:00;;;;;;;41.50;28.10;;;-1.30;99.90;;;;;;5030902;28;20411;-68
2022/12/16 00:21:28;;;;;;;42.23;28.10;;;-1.30;99.90;;;;;;5029650;28;20416;-70
2022/12/16 00:23:57;;;;;;;43.15;28.67;;;-1.40;99.90;;;;;;5037837;28;20457;-69
2022/12/16 00:26:23;;;;;;;45.53;29.23;;;-1.30;99.90;;;;;;5040227;28;20400;-68
2022/12/16 00:28:48;;;;;;;41.45;27.92;;;-1.20;99.90;;;;;;5030683;28;20474;-67
2022/12/16 00:31:14;;;;;;;37.90;26.77;;;-1.30;99.90;;;;;;5031697;28;20388;-67
2022/12/16 00:33:39;;;;;;;38.43;28.33;;;-1.30;99.90;;;;;;5032116;28;20731;-67
2022/12/16 00:36:06;;;;;;;42.50;28.50;;;-1.40;99.90;;;;;;5030701;28;20512;-67
2022/12/16 00:38:31;;;;;;;41.40;29.23;;;-1.30;99.90;;;;;;5030852;28;20406;-67
2022/12/16 00:40:57;;;;;;;38.37;28.67;;;-1.20;99.90;;;;;;5029563;28;20398;-68
2022/12/16 00:43:23;;;;;;;39.30;28.27;;;-1.20;99.90;;;;;;5029822;28;20390;-68
2022/12/16 00:45:49;;;;;;;36.90;26.40;;;-1.10;99.90;;;;;;5030577;28;20900;-67
2022/12/16 00:48:15;;;;;;;39.38;28.25;;;-1.20;99.90;;;;;;5029799;28;20929;-67
2022/12/16 00:50:42;;;;;;;36.50;25.90;;;-1.20;99.90;;;;;;5030258;28;20777;-68
2022/12/16 00:53:08;;;;;;;39.53;27.45;;;-1.10;99.90;;;;;;5029608;28;20893;-68
2022/12/16 00:55:33;;;;;;;37.90;27.17;;;-1.30;99.90;;;;;;5029944;28;20422;-68
2022/12/16 00:57:59;;;;;;;39.40;29.13;;;-1.40;99.90;;;;;;5030203;28;20395;-68
2022/12/16 01:00:25;;;;;;;39.57;26.87;;;-1.20;99.90;;;;;;5030011;28;20410;-68
2022/12/16 01:02:51;;;;;;;41.60;28.27;;;-1.20;99.90;;;;;;5029328;28;20486;-68
2022/12/16 01:05:19;;;;;;;42.28;28.58;;;-1.30;99.90;;;;;;5030119;28;20869;-68
2022/12/16 01:07:45;;;;;;;40.58;27.65;;;-1.30;99.90;;;;;;5029744;28;20435;-68
2022/12/16 01:10:11;;;;;;;39.85;26.98;;;-1.20;99.90;;;;;;5029557;28;20908;-68
2022/12/16 01:12:37;;;;;;;40.95;26.77;;;-1.20;99.90;;;;;;5029086;28;20387;-67
2022/12/16 01:15:04;;;;;;;39.65;26.20;;;-1.10;99.90;;;;;;5030072;28;20379;-68
2022/12/16 01:17:30;;;;;;;38.33;27.20;;;-1.10;99.90;;;;;;5029832;28;20379;-68
2022/12/16 01:19:55;;;;;;;37.35;26.02;;;-1.00;99.90;;;;;;5029799;28;20896;-68
2022/12/16 01:22:21;;;;;;;36.95;26.05;;;-0.90;99.90;;;;;;5029739;28;20462;-68
2022/12/16 01:24:47;;;;;;;36.75;26.23;;;-1.00;99.90;;;;;;5029005;28;20406;-67
2022/12/16 01:27:14;;;;;;;37.45;26.63;;;-0.90;99.90;;;;;;5029834;28;20426;-67
2022/12/16 01:29:40;;;;;;;37.17;27.30;;;-0.90;99.90;;;;;;5029741;28;20474;-68
2022/12/16 01:32:06;;;;;;;40.03;27.23;;;-0.90;99.90;;;;;;5030026;28;20932;-68
2022/12/16 01:34:32;;;;;;;37.80;26.55;;;-0.90;99.90;;;;;;5028954;28;20482;-68
2022/12/16 01:36:57;;;;;;;41.73;28.40;;;-0.90;99.90;;;;;;5029717;28;20492;-68
2022/12/16 01:39:24;;;;;;;37.20;26.43;;;-1.10;99.90;;;;;;5029419;28;20430;-68
2022/12/16 01:41:49;;;;;;;40.50;27.23;;;-1.00;99.90;;;;;;5029911;28;20371;-68
2022/12/16 01:44:25;;;;;;;39.08;28.58;;;-1.10;99.90;;;;;;5028942;28;20390;-68
2022/12/16 01:47:16;;;;;;;40.03;28.40;;;-1.30;99.90;;;;;;5029603;28;20453;-68
2022/12/16 01:50:15;;;;;;;39.22;28.20;;;-1.20;99.90;;;;;;5023306;28;20830;-68
2022/12/16 01:52:47;;;;;;;37.70;26.90;;;-1.00;99.90;;;;;;5006541;28;20395;-68
2022/12/16 01:55:20;;;;;;;39.38;27.17;;;-1.10;99.90;;;;;;5029575;28;20414;-68
2022/12/16 01:57:55;;;;;;;37.28;26.73;;;-1.10;99.90;;;;;;5029501;28;20462;-67
2022/12/16 02:00:20;;;;;;;34.45;25.90;;;-1.20;99.90;;;;;;5031261;28;20754;-67
2022/12/16 02:02:47;;;;;;;38.08;26.58;;;-1.30;99.90;;;;;;5032698;28;20391;-67
2022/12/16 02:05:20;;;;;;;34.55;24.80;;;-1.30;99.90;;;;;;5031807;28;20398;-68
2022/12/16 02:08:15;;;;;;;42.90;28.70;;;-1.30;99.90;;;;;;5033053;28;20411;-68
2022/12/16 02:10:40;;;;;;;37.50;27.27;;;-1.30;99.90;;;;;;5012741;28;20502;-67
2022/12/16 02:13:45;;;;;;;42.27;28.37;;;-1.40;99.90;;;;;;5012546;28;20389;-68
2022/12/16 02:16:32;;;;;;;38.13;26.73;;;-1.30;99.90;;;;;;5013194;28;20459;-67
2022/12/16 02:19:01;;;;;;;36.65;27.00;;;-1.30;99.90;;;;;;5012972;28;20891;-68
2022/12/16 02:22:00;;;;;;;35.95;25.90;;;-1.30;99.90;;;;;;5013019;28;20392;-68
2022/12/16 02:24:59;;;;;;;38.95;25.77;;;-1.30;99.90;;;;;;5042013;28;20416;-67
2022/12/16 02:27:40;;;;;;;35.20;24.95;;;-1.30;99.90;;;;;;5044236;28;20977;-68
2022/12/16 02:30:23;;;;;;;33.88;25.77;;;-1.30;99.90;;;;;;5051123;28;20373;-67
2022/12/16 02:32:58;;;;;;;34.72;25.40;;;-1.20;99.90;;;;;;5043546;28;20393;-68
2022/12/16 02:35:40;;;;;;;33.28;24.52;;;-1.10;99.90;;;;;;5051291;28;20756;-68
2022/12/16 02:38:24;;;;;;;35.40;25.83;;;-1.10;99.90;;;;;;5052562;28;20392;-68
2022/12/16 02:41:01;;;;;;;33.47;23.60;;;-1.00;99.90;;;;;;5051162;28;20378;-67
2022/12/16 02:43:44;;;;;;;32.75;22.98;;;-1.10;99.90;;;;;;5040599;28;20817;-67
2022/12/16 02:46:10;;;;;;;33.63;23.85;;;-1.20;99.90;;;;;;5041471;28;20781;-68
2022/12/16 02:48:35;;;;;;;31.95;24.23;;;-1.20;99.90;;;;;;5043884;28;20392;-68
2022/12/16 02:51:01;;;;;;;33.57;24.90;;;-1.20;99.90;;;;;;5052063;28;20397;-68
2022/12/16 02:53:29;;;;;;;37.20;25.70;;;-1.10;99.90;;;;;;5051479;28;20377;-68
2022/12/16 02:56:25;;;;;;;35.20;25.13;;;-1.10;99.90;;;;;;5052536;28;20879;-68
2022/12/16 02:59:10;;;;;;;34.22;25.20;;;-1.10;99.90;;;;;;5052115;28;20717;-68
2022/12/16 03:01:51;;;;;;;34.75;24.45;;;-1.10;99.90;;;;;;5052080;28;20455;-68
2022/12/16 03:04:36;;;;;;;33.45;24.83;;;-1.20;99.90;;;;;;5051293;28;20370;-68
2022/12/16 03:07:05;;;;;;;35.55;25.75;;;-1.30;99.90;;;;;;5051963;28;20410;-68
2022/12/16 03:09:33;;;;;;;34.47;24.83;;;-1.20;99.90;;;;;;5041514;28;20437;-67
2022/12/16 03:12:01;;;;;;;34.92;25.73;;;-1.30;99.90;;;;;;5039574;28;20854;-68
2022/12/16 03:14:33;;;;;;;35.83;25.08;;;-1.30;99.90;;;;;;5050700;28;20409;-68
2022/12/16 03:16:59;;;;;;;37.22;26.65;;;-1.30;99.90;;;;;;5051808;28;20405;-67
2022/12/16 03:19:26;;;;;;;34.80;25.20;;;-1.20;99.90;;;;;;5051466;28;20400;-67
2022/12/16 03:21:59;;;;;;;38.10;24.90;;;-1.20;99.90;;;;;;5051692;28;20396;-68
2022/12/16 03:24:26;;;;;;;37.47;26.03;;;-1.30;99.90;;;;;;5051049;28;20503;-68
2022/12/16 03:27:27;;;;;;;38.80;27.83;;;-1.30;99.90;;;;;;5051581;28;20562;-68
2022/12/16 03:30:05;;;;;;;37.35;25.70;;;-1.30;99.90;;;;;;5051391;28;20886;-68
2022/12/16 03:32:42;;;;;;;36.20;26.65;;;-1.20;99.90;;;;;;5051161;28;20393;-68
2022/12/16 03:35:16;;;;;;;36.13;26.20;;;-1.20;99.90;;;;;;5051409;28;20382;-68
2022/12/16 03:37:45;;;;;;;38.30;26.52;;;-1.20;99.90;;;;;;5049994;28;20389;-68
2022/12/16 03:40:12;;;;;;;37.27;26.47;;;-1.20;99.90;;;;;;5049781;28;20397;-68
2022/12/16 03:42:39;;;;;;;36.67;26.98;;;-1.20;99.90;;;;;;5050560;28;20462;-68
2022/12/16 03:45:07;;;;;;;38.80;27.73;;;-1.20;99.90;;;;;;5051143;28;20443;-68
2022/12/16 03:47:33;;;;;;;35.17;25.45;;;-1.20;99.90;;;;;;5051138;28;20420;-68
2022/12/16 03:49:58;;;;;;;35.17;25.58;;;-1.40;99.90;;;;;;5050949;28;20390;-68
2022/12/16 03:52:24;;;;;;;34.33;26.37;;;-1.20;99.90;;;;;;5050901;28;20424;-68
2022/12/16 03:54:49;;;;;;;34.23;24.73;;;-1.20;99.90;;;;;;5050695;28;20385;-68
2022/12/16 03:57:15;;;;;;;35.30;25.60;;;-1.20;99.90;;;;;;5049888;28;20393;-69
2022/12/16 03:59:40;;;;;;;35.77;26.13;;;-1.20;99.90;;;;;;5050886;28;20386;-68
2022/12/16 04:02:06;;;;;;;35.57;26.40;;;-1.30;99.90;;;;;;5051023;28;20505;-68
2022/12/16 04:04:31;;;;;;;35.73;26.23;;;-1.20;99.90;;;;;;5050107;28;20381;-68
2022/12/16 04:09:41;;;;;;;34.83;25.65;;;-1.20;99.90;;;;;;5038982;28;20390;-67
2022/12/16 04:25:53;;;;;;;32.28;23.50;;;-1.20;99.90;;;;;;5038552;28;20437;-68
2022/12/16 04:28:18;;;;;;;35.22;23.48;;;-1.20;99.90;;;;;;5048772;28;20401;-68
2022/12/16 04:30:44;;;;;;;32.75;24.75;;;-1.10;99.90;;;;;;5050414;28;20381;-68
